Forside
METAR-TAF:

METAR-TAF

Lufthavne :

Defiance Memorial Airport

Defiance, Ohio, USA

Breddekreds: 41-20-11N, længdekreds: 084-25-46W, højde: 215 m

Aktuelle vejr

Denne rapport blev lavet for 34 minutter siden, kl. 20:53 UTC
Vind 7 kt fra vestsydvest, varierende mellem sydvest og vestnordvest
Temperatur 2°C
Fugtighed 80%
Tryk 1011 hPa
Sigt: 16.1 km
Overskyet i en højde af 1000 ft

METAR: KDFI 262053Z AUTO 25007KT 220V300 10SM OVC010 02/M01 A2986 RMK AO2 SLP119 T00171011 55002

Tid: 16:27 (21:27 UTC)


TAF: fraværende

Vejrobservationer og prognoser fra mere end 4000 lufthavne (METAR og TAF).

De gule og røde prikker repræsenterer de meteorologiske stationer.

Flyt musen over at se navnet på stationen.

Så klik over at se vejr observationer og prognoser.

At skifte det kort: Klik på de grønne knapper med et sort kors for at zoome ind; på den grønne knap med en bindestreg for at zoome ud; eller på de grønne pile for tilstødende kort.


METAR-TAF: